createdAt,value
2022-08-04T00:02:25.630Z,55.50
2022-08-04T00:05:01.119Z,55.50
2022-08-04T00:07:56.151Z,55.50
2022-08-04T00:10:23.429Z,55.50
2022-08-04T00:12:52.133Z,55.50
2022-08-04T00:15:20.018Z,55.60
2022-08-04T00:17:55.302Z,55.50
2022-08-04T00:20:22.438Z,55.60
2022-08-04T00:22:49.600Z,55.50
2022-08-04T00:25:16.865Z,55.50
2022-08-04T00:27:43.949Z,55.50
2022-08-04T00:30:11.145Z,55.60
2022-08-04T00:32:41.070Z,55.60
2022-08-04T00:35:10.111Z,55.60
2022-08-04T00:37:38.837Z,55.60
2022-08-04T00:40:32.651Z,55.50
2022-08-04T00:43:09.493Z,55.50
2022-08-04T00:46:15.632Z,55.50
2022-08-04T00:48:47.376Z,55.50
2022-08-04T00:51:26.211Z,55.50
2022-08-04T00:54:10.588Z,55.50
2022-08-04T00:56:40.472Z,55.50
2022-08-04T00:59:32.439Z,55.50
2022-08-04T01:02:12.721Z,55.50
2022-08-04T01:05:07.722Z,55.60
2022-08-04T01:07:52.938Z,55.50
2022-08-04T01:10:52.076Z,55.50
2022-08-04T01:13:37.703Z,55.50
2022-08-04T01:16:07.521Z,55.50
2022-08-04T01:18:49.735Z,55.50
2022-08-04T01:21:46.927Z,55.60
2022-08-04T01:24:29.648Z,55.50
2022-08-04T01:27:07.056Z,55.60
2022-08-04T01:29:55.835Z,55.50
2022-08-04T01:32:33.127Z,55.60
2022-08-04T01:35:08.365Z,55.60
2022-08-04T01:37:42.574Z,55.60
2022-08-04T01:40:09.662Z,55.60
2022-08-04T01:42:37.657Z,55.50
2022-08-04T01:45:07.284Z,55.50
2022-08-04T01:47:41.131Z,55.50
2022-08-04T01:50:13.516Z,55.50
2022-08-04T01:52:42.035Z,55.50
2022-08-04T01:55:11.388Z,55.50
2022-08-04T01:57:46.835Z,55.60
2022-08-04T02:00:16.424Z,55.60
2022-08-04T02:02:45.043Z,55.50
2022-08-04T02:05:15.109Z,55.50
2022-08-04T02:07:44.656Z,55.60
2022-08-04T02:10:24.995Z,55.60
2022-08-04T02:16:05.153Z,55.60
2022-08-04T02:18:43.493Z,55.50
2022-08-04T02:21:10.371Z,55.50
2022-08-04T02:23:41.782Z,55.50
2022-08-04T02:26:22.294Z,55.40
2022-08-04T02:29:18.123Z,55.50
2022-08-04T02:31:59.772Z,55.50
2022-08-04T02:34:30.436Z,55.40
2022-08-04T02:36:59.744Z,55.40
2022-08-04T02:39:47.822Z,55.50
2022-08-04T02:42:17.116Z,55.40
2022-08-04T02:44:49.342Z,55.50
2022-08-04T02:47:19.779Z,55.40
2022-08-04T02:49:47.896Z,55.40
2022-08-04T02:52:15.170Z,55.40
2022-08-04T02:54:42.958Z,55.40
2022-08-04T02:57:11.856Z,55.50
2022-08-04T03:00:14.564Z,55.50
2022-08-04T03:02:59.981Z,55.50
2022-08-04T03:05:50.203Z,55.50
2022-08-04T03:08:37.074Z,55.50
2022-08-04T03:11:22.713Z,55.60
2022-08-04T03:14:20.496Z,55.40
2022-08-04T03:17:11.929Z,55.50
2022-08-04T03:20:00.483Z,55.40
2022-08-04T03:23:12.963Z,55.50
2022-08-04T03:25:56.651Z,55.50
2022-08-04T03:29:00.555Z,55.40
2022-08-04T03:31:58.495Z,55.40
2022-08-04T03:35:01.335Z,55.30
2022-08-04T03:37:34.076Z,55.30
2022-08-04T03:40:10.771Z,55.30
2022-08-04T03:42:37.767Z,55.30
2022-08-04T03:45:24.396Z,55.30
2022-08-04T03:48:36.508Z,55.30
2022-08-04T03:51:53.144Z,55.30
2022-08-04T03:55:11.328Z,55.40
2022-08-04T03:57:56.217Z,55.40
2022-08-04T04:00:30.738Z,55.40
2022-08-04T04:03:29.009Z,55.50
2022-08-04T04:06:25.171Z,55.40
2022-08-04T04:09:40.158Z,55.40
2022-08-04T04:12:50.766Z,55.50
2022-08-04T04:15:20.866Z,55.40
2022-08-04T04:17:59.545Z,55.40
2022-08-04T04:20:54.584Z,55.30
2022-08-04T04:23:39.814Z,55.40
2022-08-04T04:26:28.705Z,55.40
2022-08-04T04:29:17.464Z,55.40
2022-08-04T04:32:06.011Z,55.40
2022-08-04T04:34:58.979Z,55.40
2022-08-04T04:37:48.641Z,55.40
2022-08-04T04:40:25.903Z,55.40
2022-08-04T04:43:09.756Z,55.40
2022-08-04T04:46:04.266Z,55.40
2022-08-04T04:48:43.003Z,55.40
2022-08-04T04:51:29.357Z,55.40
2022-08-04T04:54:19.870Z,55.40
2022-08-04T04:57:16.218Z,55.40
2022-08-04T05:00:07.468Z,55.40
2022-08-04T05:03:18.281Z,55.40
2022-08-04T05:06:00.952Z,55.40
2022-08-04T05:09:12.958Z,55.40
2022-08-04T05:11:51.754Z,55.40
2022-08-04T05:14:36.653Z,55.40
2022-08-04T05:17:27.179Z,55.40
2022-08-04T05:20:02.064Z,55.40
2022-08-04T05:22:37.838Z,55.50
2022-08-04T05:25:27.885Z,55.50
2022-08-04T05:28:15.456Z,55.50
2022-08-04T05:30:50.437Z,55.50
2022-08-04T05:33:27.215Z,55.50
2022-08-04T05:36:19.194Z,55.60
2022-08-04T05:38:47.571Z,55.60
2022-08-04T05:41:15.035Z,55.60
2022-08-04T05:43:44.200Z,55.60
2022-08-04T05:46:12.404Z,55.60
2022-08-04T05:48:39.986Z,55.60
2022-08-04T05:51:09.551Z,55.60
2022-08-04T05:53:36.821Z,55.60
2022-08-04T05:56:06.410Z,55.70
2022-08-04T05:58:33.472Z,55.60
2022-08-04T06:01:01.864Z,55.60
2022-08-04T06:03:32.177Z,55.70
2022-08-04T06:06:00.219Z,55.70
2022-08-04T06:08:27.175Z,55.70
2022-08-04T06:10:55.101Z,55.70
2022-08-04T06:13:48.822Z,55.70
2022-08-04T06:16:28.619Z,55.80
2022-08-04T06:20:02.567Z,55.80
2022-08-04T06:21:49.587Z,55.80
2022-08-04T06:24:19.898Z,55.80
2022-08-04T06:26:48.221Z,55.90
2022-08-04T06:29:24.836Z,55.90
2022-08-04T06:32:30.346Z,55.90
2022-08-04T06:34:45.922Z,55.90
2022-08-04T06:37:43.113Z,56.10
2022-08-04T06:40:01.734Z,55.90
2022-08-04T06:42:30.044Z,56.00
2022-08-04T06:45:02.040Z,55.90
2022-08-04T06:47:30.588Z,56.00
2022-08-04T06:51:28.277Z,55.90
2022-08-04T06:52:46.000Z,56.00
2022-08-04T06:55:13.435Z,56.00
2022-08-04T06:57:41.054Z,56.00
2022-08-04T07:00:13.918Z,56.00
2022-08-04T07:02:50.180Z,56.00
2022-08-04T07:05:17.462Z,56.00
2022-08-04T07:07:56.449Z,56.00
2022-08-04T07:10:25.572Z,56.00
2022-08-04T07:12:52.939Z,56.00
2022-08-04T07:15:21.099Z,56.00
2022-08-04T07:17:52.076Z,56.00
2022-08-04T07:20:30.440Z,56.10
2022-08-04T07:23:02.351Z,56.00
2022-08-04T07:25:58.800Z,56.00
2022-08-04T07:28:16.187Z,56.00
2022-08-04T07:30:44.404Z,56.00
2022-08-04T07:33:11.940Z,56.00
2022-08-04T07:36:04.547Z,56.00
2022-08-04T07:38:27.439Z,56.00
2022-08-04T07:40:55.562Z,56.00
2022-08-04T07:43:22.825Z,56.00
2022-08-04T07:45:49.872Z,56.00
2022-08-04T07:48:18.853Z,56.00
2022-08-04T07:50:47.081Z,56.00
2022-08-04T07:53:54.348Z,56.00
2022-08-04T07:56:02.348Z,56.00
2022-08-04T07:58:30.320Z,55.90
2022-08-04T08:00:58.003Z,55.90
2022-08-04T08:03:25.707Z,55.90
2022-08-04T08:06:16.773Z,56.60
2022-08-04T08:08:40.216Z,55.90
2022-08-04T08:11:07.846Z,55.80
2022-08-04T08:13:35.120Z,55.90
2022-08-04T08:16:02.899Z,55.90
2022-08-04T08:18:30.736Z,55.80
2022-08-04T08:20:58.315Z,55.80
2022-08-04T08:23:26.312Z,55.90
2022-08-04T08:25:53.257Z,55.80
2022-08-04T08:28:20.248Z,55.80
2022-08-04T08:30:52.944Z,55.80
2022-08-04T08:33:21.029Z,55.80
2022-08-04T08:36:09.848Z,55.80
2022-08-04T08:38:45.934Z,55.90
2022-08-04T08:41:52.208Z,55.90
2022-08-04T08:44:57.639Z,55.90
2022-08-04T08:47:30.616Z,55.90
2022-08-04T08:51:01.993Z,55.90
2022-08-04T08:53:50.506Z,56.00
2022-08-04T08:56:31.251Z,55.90
2022-08-04T08:59:23.351Z,55.90
2022-08-04T09:02:09.076Z,55.90
2022-08-04T09:05:10.659Z,56.00
2022-08-04T09:07:54.942Z,55.90
2022-08-04T09:10:36.156Z,56.00
2022-08-04T09:13:13.780Z,55.90
2022-08-04T09:16:09.065Z,55.90
2022-08-04T09:18:48.216Z,55.90
2022-08-04T09:21:39.955Z,55.90
2022-08-04T09:24:35.249Z,55.90
2022-08-04T09:27:19.492Z,56.00
2022-08-04T09:29:55.816Z,55.80
2022-08-04T09:32:54.387Z,55.90
2022-08-04T09:35:37.749Z,55.80
2022-08-04T09:38:14.203Z,55.80
2022-08-04T09:40:55.631Z,55.70
2022-08-04T09:44:52.527Z,55.60
2022-08-04T09:47:03.728Z,55.60
2022-08-04T09:49:49.411Z,55.70
2022-08-04T09:52:43.757Z,55.60
2022-08-04T09:55:23.043Z,55.60
2022-08-04T09:58:11.004Z,55.50
2022-08-04T10:00:46.981Z,55.50
2022-08-04T10:03:19.960Z,55.40
2022-08-04T10:05:59.270Z,56.00
2022-08-04T10:09:02.162Z,55.40
2022-08-04T10:11:55.811Z,55.30
2022-08-04T10:14:50.039Z,55.30
2022-08-04T10:17:30.530Z,55.40
2022-08-04T10:20:11.972Z,55.30
2022-08-04T10:23:09.469Z,55.10
2022-08-04T10:26:06.076Z,55.10
2022-08-04T10:28:50.030Z,55.60
2022-08-04T10:31:23.280Z,55.10
2022-08-04T10:33:53.753Z,55.00
2022-08-04T10:36:26.275Z,55.00
2022-08-04T10:38:57.924Z,54.80
2022-08-04T10:41:30.264Z,54.60
2022-08-04T10:44:11.176Z,54.50
2022-08-04T10:46:46.368Z,54.60
2022-08-04T10:49:35.683Z,53.80
2022-08-04T10:52:22.464Z,54.30
2022-08-04T10:54:55.359Z,54.50
2022-08-04T10:57:41.736Z,54.20
2022-08-04T11:00:14.729Z,54.40
2022-08-04T11:03:15.719Z,54.10
2022-08-04T11:05:59.157Z,54.10
2022-08-04T11:08:35.437Z,54.20
2022-08-04T11:11:30.276Z,54.30
2022-08-04T11:14:20.927Z,53.90
2022-08-04T11:17:07.541Z,54.20
2022-08-04T11:19:55.793Z,54.20
2022-08-04T11:22:30.827Z,54.20
2022-08-04T11:25:42.148Z,54.10
2022-08-04T11:28:21.312Z,54.30
2022-08-04T11:30:57.029Z,54.00
2022-08-04T11:33:48.244Z,54.30
2022-08-04T11:36:21.510Z,54.50
2022-08-04T11:39:16.064Z,53.90
2022-08-04T11:41:46.019Z,53.90
2022-08-04T11:44:23.150Z,54.00
2022-08-04T11:46:52.400Z,53.70
2022-08-04T11:49:29.578Z,53.80
2022-08-04T11:51:57.276Z,54.10
2022-08-04T11:54:24.153Z,53.70
2022-08-04T11:56:51.218Z,53.80
2022-08-04T11:59:18.952Z,53.50
2022-08-04T12:02:27.480Z,53.60
2022-08-04T12:05:01.328Z,53.80
2022-08-04T12:07:43.540Z,53.80
2022-08-04T12:10:41.331Z,53.30
2022-08-04T12:13:09.463Z,53.50
2022-08-04T12:15:42.756Z,53.80
2022-08-04T12:18:35.058Z,53.20
2022-08-04T12:21:07.092Z,53.30
2022-08-04T12:23:39.473Z,53.50
2022-08-04T12:26:15.852Z,53.20
2022-08-04T12:32:06.260Z,53.40
2022-08-04T12:34:41.956Z,53.20
2022-08-04T12:37:31.858Z,52.80
2022-08-04T12:40:30.278Z,52.30
2022-08-04T12:42:55.992Z,52.40
2022-08-04T12:45:26.112Z,52.70
2022-08-04T12:47:56.392Z,52.70
2022-08-04T12:50:23.948Z,52.60
2022-08-04T12:53:03.329Z,52.60
2022-08-04T12:55:31.959Z,52.60
2022-08-04T12:57:59.269Z,52.90
2022-08-04T13:00:43.988Z,52.40
2022-08-04T13:03:16.475Z,52.00
2022-08-04T13:05:44.160Z,52.40
2022-08-04T13:08:12.181Z,52.10
2022-08-04T13:10:41.884Z,52.30
2022-08-04T13:13:15.749Z,52.20
2022-08-04T13:15:47.660Z,52.10
2022-08-04T13:18:29.237Z,51.90
2022-08-04T13:20:57.913Z,51.80
2022-08-04T13:23:26.419Z,52.10
2022-08-04T13:26:45.194Z,52.00
2022-08-04T13:28:45.448Z,52.10
2022-08-04T13:31:16.968Z,52.10
2022-08-04T13:33:45.725Z,52.20
2022-08-04T13:36:13.059Z,52.10
2022-08-04T13:38:50.573Z,51.70
2022-08-04T13:41:18.910Z,52.10
2022-08-04T13:44:19.337Z,52.00
2022-08-04T13:46:41.024Z,51.80
2022-08-04T13:49:42.850Z,51.60
2022-08-04T13:52:10.780Z,51.60
2022-08-04T13:54:43.917Z,51.70
2022-08-04T13:57:19.301Z,51.80
2022-08-04T13:59:49.568Z,52.00
2022-08-04T14:02:35.190Z,51.70
2022-08-04T14:05:18.038Z,52.10
2022-08-04T14:08:05.813Z,51.90
2022-08-04T14:10:33.360Z,52.10
2022-08-04T14:13:00.473Z,52.00
2022-08-04T14:16:01.305Z,52.00
2022-08-04T14:18:32.062Z,51.70
2022-08-04T14:21:07.703Z,51.90
2022-08-04T14:23:48.019Z,51.90
2022-08-04T14:26:20.702Z,51.70
2022-08-04T14:29:27.797Z,51.70
2022-08-04T14:32:12.489Z,51.80
2022-08-04T14:34:44.860Z,51.90
2022-08-04T14:37:19.634Z,51.50
2022-08-04T14:40:08.307Z,51.70
2022-08-04T14:42:55.586Z,51.90
2022-08-04T14:45:35.660Z,51.70
2022-08-04T14:48:14.153Z,51.80
2022-08-04T14:50:43.303Z,51.70
2022-08-04T14:53:12.565Z,51.60
2022-08-04T14:55:42.705Z,51.90
2022-08-04T14:58:35.315Z,51.80
2022-08-04T15:01:10.562Z,51.80
2022-08-04T15:03:50.994Z,51.70
2022-08-04T15:06:27.816Z,51.60
2022-08-04T15:08:56.951Z,51.90
2022-08-04T15:11:24.711Z,51.50
2022-08-04T15:13:56.303Z,51.60
2022-08-04T15:16:24.904Z,51.70
2022-08-04T15:18:54.845Z,52.30
2022-08-04T15:21:25.870Z,51.60
2022-08-04T15:23:52.904Z,51.40
2022-08-04T15:26:29.445Z,51.30
2022-08-04T15:29:03.291Z,51.30
2022-08-04T15:32:03.921Z,51.40
2022-08-04T15:34:23.805Z,51.30
2022-08-04T15:36:57.192Z,51.20
2022-08-04T15:39:59.086Z,51.50
2022-08-04T15:43:03.154Z,51.20
2022-08-04T15:46:37.013Z,51.30
2022-08-04T15:48:40.273Z,51.20
2022-08-04T15:51:14.771Z,51.60
2022-08-04T15:54:02.794Z,51.50
2022-08-04T15:56:29.724Z,51.40
2022-08-04T15:58:57.305Z,51.40
2022-08-04T16:01:24.807Z,51.60
2022-08-04T16:04:00.010Z,51.50
2022-08-04T16:06:29.751Z,51.50
2022-08-04T16:09:01.270Z,52.40
2022-08-04T16:11:40.049Z,51.50
2022-08-04T16:14:10.822Z,51.60
2022-08-04T16:16:41.010Z,51.50
2022-08-04T16:19:35.273Z,51.70
2022-08-04T16:22:04.619Z,51.80
2022-08-04T16:24:36.024Z,51.60
2022-08-04T16:27:08.255Z,51.60
2022-08-04T16:29:36.191Z,51.50
2022-08-04T16:32:06.525Z,51.60
2022-08-04T16:35:05.400Z,51.60
2022-08-04T16:37:38.267Z,51.60
2022-08-04T16:40:38.758Z,51.50
2022-08-04T16:43:13.623Z,51.60
2022-08-04T16:45:45.599Z,51.60
2022-08-04T16:48:13.845Z,51.40
2022-08-04T16:50:49.599Z,51.70
2022-08-04T16:53:52.576Z,51.70
2022-08-04T16:56:06.568Z,51.60
2022-08-04T16:58:36.874Z,51.80
2022-08-04T17:01:12.169Z,51.70
2022-08-04T17:04:04.761Z,51.70
2022-08-04T17:06:36.822Z,51.70
2022-08-04T17:09:26.792Z,51.90
2022-08-04T17:11:56.167Z,51.90
2022-08-04T17:14:27.384Z,51.80
2022-08-04T17:16:57.991Z,51.90
2022-08-04T17:19:26.496Z,52.00
2022-08-04T17:22:04.904Z,52.10
2022-08-04T17:24:34.654Z,52.00
2022-08-04T17:27:04.065Z,52.30
2022-08-04T17:29:44.082Z,52.20
2022-08-04T17:32:16.875Z,52.20
2022-08-04T17:35:08.600Z,52.20
2022-08-04T17:37:40.996Z,52.10
2022-08-04T17:40:25.292Z,51.80
2022-08-04T17:44:02.948Z,51.90
2022-08-04T17:46:28.984Z,52.00
2022-08-04T17:48:59.528Z,51.90
2022-08-04T17:52:01.886Z,52.20
2022-08-04T17:54:36.360Z,52.00
2022-08-04T17:57:21.246Z,51.90
2022-08-04T17:59:56.800Z,51.90
2022-08-04T18:02:32.954Z,51.90
2022-08-04T18:05:11.945Z,52.00
2022-08-04T18:08:39.595Z,51.90
2022-08-04T18:10:52.651Z,51.90
2022-08-04T18:13:25.197Z,51.90
2022-08-04T18:16:04.030Z,52.00
2022-08-04T18:18:30.870Z,52.00
2022-08-04T18:20:59.716Z,51.70
2022-08-04T18:23:31.957Z,51.60
2022-08-04T18:26:02.116Z,51.90
2022-08-04T18:28:30.726Z,51.40
2022-08-04T18:31:00.450Z,51.60
2022-08-04T18:33:40.125Z,51.50
2022-08-04T18:36:33.319Z,51.30
2022-08-04T18:38:59.052Z,51.50
2022-08-04T18:41:27.587Z,51.90
2022-08-04T18:43:56.759Z,51.80
2022-08-04T18:46:27.336Z,52.10
2022-08-04T18:48:54.754Z,52.10
2022-08-04T18:51:30.787Z,52.00
2022-08-04T18:53:59.013Z,52.10
2022-08-04T18:56:29.614Z,52.40
2022-08-04T18:59:03.924Z,52.30
2022-08-04T19:02:12.493Z,52.40
2022-08-04T19:04:34.173Z,52.00
2022-08-04T19:09:54.191Z,52.00
2022-08-04T19:12:27.424Z,51.80
2022-08-04T19:15:08.689Z,52.00
2022-08-04T19:17:57.342Z,52.10
2022-08-04T19:20:28.303Z,52.30
2022-08-04T19:24:28.101Z,52.10
2022-08-04T19:26:01.289Z,52.50
2022-08-04T19:28:34.394Z,52.20
2022-08-04T19:31:06.760Z,52.40
2022-08-04T19:33:58.532Z,52.40
2022-08-04T19:36:27.529Z,52.40
2022-08-04T19:38:57.289Z,52.60
2022-08-04T19:44:13.425Z,52.70
2022-08-04T19:46:40.301Z,52.80
2022-08-04T19:49:07.120Z,52.80
2022-08-04T19:51:53.936Z,52.70
2022-08-04T19:54:23.784Z,52.80
2022-08-04T19:56:54.553Z,53.00
2022-08-04T19:59:22.272Z,52.90
2022-08-04T20:01:49.662Z,53.00
2022-08-04T20:04:16.810Z,53.10
2022-08-04T20:06:43.844Z,53.10
2022-08-04T20:09:26.479Z,53.10
2022-08-04T20:11:55.437Z,53.20
2022-08-04T20:14:32.339Z,53.20
2022-08-04T20:17:01.109Z,53.20
2022-08-04T20:19:27.964Z,53.30
2022-08-04T20:21:57.640Z,53.30
2022-08-04T20:24:39.350Z,53.40
2022-08-04T20:27:15.415Z,53.40
2022-08-04T20:29:48.661Z,53.50
2022-08-04T20:32:22.284Z,53.50
2022-08-04T20:34:51.435Z,53.50
2022-08-04T20:37:23.491Z,53.60
2022-08-04T20:39:58.461Z,53.60
2022-08-04T20:42:27.720Z,53.60
2022-08-04T20:45:01.436Z,53.60
2022-08-04T20:47:31.159Z,53.70
2022-08-04T20:50:03.937Z,53.70
2022-08-04T20:52:33.096Z,53.70
2022-08-04T20:55:04.348Z,53.70
2022-08-04T20:57:48.186Z,53.80
2022-08-04T21:00:17.660Z,53.80
2022-08-04T21:02:53.712Z,54.50
2022-08-04T21:05:20.713Z,53.80
2022-08-04T21:07:48.948Z,53.90
2022-08-04T21:10:17.047Z,53.90
2022-08-04T21:12:49.602Z,53.90
2022-08-04T21:15:24.946Z,53.90
2022-08-04T21:17:59.415Z,54.00
2022-08-04T21:20:32.405Z,53.90
2022-08-04T21:23:02.133Z,54.00
2022-08-04T21:25:30.768Z,54.00
2022-08-04T21:30:53.923Z,54.00
2022-08-04T21:33:23.260Z,54.10
2022-08-04T21:35:54.245Z,54.10
2022-08-04T21:38:25.052Z,54.10
2022-08-04T21:40:56.365Z,54.10
2022-08-04T21:43:27.308Z,54.10
2022-08-04T21:45:56.110Z,54.10
2022-08-04T21:48:27.286Z,54.10
2022-08-04T21:50:55.276Z,54.20
2022-08-04T21:53:22.669Z,54.20
2022-08-04T21:56:04.473Z,54.30
2022-08-04T21:58:34.596Z,54.30
2022-08-04T22:01:05.875Z,54.30
2022-08-04T22:03:51.809Z,54.40
2022-08-04T22:06:28.216Z,54.40
2022-08-04T22:08:56.470Z,54.40
2022-08-04T22:11:49.066Z,54.40
2022-08-04T22:14:17.640Z,54.50
2022-08-04T22:16:56.379Z,54.50
2022-08-04T22:19:39.815Z,54.50
2022-08-04T22:22:13.676Z,54.60
2022-08-04T22:24:52.063Z,54.60
2022-08-04T22:27:37.487Z,54.70
2022-08-04T22:30:16.941Z,54.60
2022-08-04T22:32:48.447Z,54.60
2022-08-04T22:35:35.586Z,54.60
2022-08-04T22:38:24.307Z,54.80
2022-08-04T22:40:57.966Z,54.80
2022-08-04T22:43:31.985Z,54.70
2022-08-04T22:46:03.615Z,54.90
2022-08-04T22:48:32.456Z,54.80
2022-08-04T22:51:00.565Z,54.80
2022-08-04T22:53:27.791Z,54.80
2022-08-04T22:56:06.991Z,54.80
2022-08-04T22:58:40.223Z,54.90
2022-08-04T23:01:08.827Z,54.90
2022-08-04T23:03:38.413Z,55.00
2022-08-04T23:06:10.866Z,55.00
2022-08-04T23:08:43.135Z,55.00
2022-08-04T23:11:15.476Z,55.00
2022-08-04T23:13:42.896Z,55.10
2022-08-04T23:16:10.541Z,55.20
2022-08-04T23:18:42.146Z,55.20
2022-08-04T23:21:11.002Z,55.20
2022-08-04T23:23:45.499Z,55.20
2022-08-04T23:26:27.557Z,55.20
2022-08-04T23:28:55.783Z,55.20
2022-08-04T23:31:22.826Z,55.10
2022-08-04T23:33:51.786Z,55.20
2022-08-04T23:36:26.421Z,55.20
2022-08-04T23:39:00.566Z,55.20
2022-08-04T23:41:54.669Z,55.20
2022-08-04T23:44:17.651Z,55.20
2022-08-04T23:46:58.387Z,55.20
2022-08-04T23:49:25.309Z,55.20
2022-08-04T23:52:23.288Z,55.10
2022-08-04T23:55:00.810Z,55.10
2022-08-04T23:57:30.958Z,55.20
